Time;durP1;ratioP1;P1;durP2;ratioP2;P2;SDS_P1;SDS_P2;PMS_P1;PMS_P2;Temp;Humidity;BMP_temperature;BMP_pressure;BME280_temperature;BME280_humidity;BME280_pressure;Samples;Min_cycle;Max_cycle;Signal;HPM_P1;HPM_P2
2023/11/15 00:01:42;;;;;;;4.75;1.52;;;;;;;;;;10113641;29;20147;-85
2023/11/15 00:06:46;;;;;;;4.72;1.27;;;;;;;;;;10102394;29;20045;-84
2023/11/15 00:11:52;;;;;;;1.13;0.70;;;;;;;;;;10101399;29;20082;-85
2023/11/15 00:16:56;;;;;;;2.45;1.20;;;;;;;;;;10766678;23;20603;-81
2023/11/15 00:22:00;;;;;;;2.17;0.90;;;;;;;;;;10177156;29;20626;-81
2023/11/15 00:27:05;;;;;;;1.95;0.50;;;;;;;;;;10172512;29;20065;-80
2023/11/15 00:32:10;;;;;;;3.58;1.20;;;;;;;;;;10163365;29;20064;-81
2023/11/15 00:37:13;;;;;;;2.17;0.85;;;;;;;;;;10173312;29;20059;-80
2023/11/15 00:42:18;;;;;;;2.63;0.85;;;;;;;;;;10160742;29;20058;-80
2023/11/15 00:47:21;;;;;;;6.50;1.20;;;;;;;;;;10165503;29;20047;-81
2023/11/15 00:52:25;;;;;;;1.75;0.75;;;;;;;;;;10173926;29;20067;-80
2023/11/15 00:57:29;;;;;;;0.75;0.50;;;;;;;;;;10171926;29;20146;-80
2023/11/15 01:02:36;;;;;;;2.90;0.90;;;;;;;;;;10160772;29;20066;-81
2023/11/15 01:07:39;;;;;;;;;;;;;;;;;;10161054;29;20044;-82
2023/11/15 01:12:44;;;;;;;3.05;0.75;;;;;;;;;;10175127;29;19923;-80
2023/11/15 01:17:47;;;;;;;3.85;1.10;;;;;;;;;;10161734;29;20056;-80
2023/11/15 01:22:50;;;;;;;9.35;1.70;;;;;;;;;;10157999;29;20485;-80
2023/11/15 01:27:55;;;;;;;4.43;1.10;;;;;;;;;;10162383;29;20472;-80
2023/11/15 01:32:58;;;;;;;3.03;0.85;;;;;;;;;;10185344;29;20120;-81
2023/11/15 01:38:02;;;;;;;1.65;0.68;;;;;;;;;;10161399;29;20551;-81
2023/11/15 01:43:07;;;;;;;2.28;0.90;;;;;;;;;;10150277;29;20048;-80
2023/11/15 01:48:10;;;;;;;4.22;1.20;;;;;;;;;;10172745;29;20068;-81
2023/11/15 01:53:15;;;;;;;1.20;0.70;;;;;;;;;;10170099;29;20052;-80
2023/11/15 01:58:20;;;;;;;3.35;1.00;;;;;;;;;;10171534;29;20048;-81
2023/11/15 02:03:23;;;;;;;3.55;0.93;;;;;;;;;;10170478;29;20503;-81
2023/11/15 02:08:27;;;;;;;2.28;0.70;;;;;;;;;;10162526;29;20055;-82
2023/11/15 02:13:32;;;;;;;4.32;1.20;;;;;;;;;;10168928;29;20056;-81
2023/11/15 02:18:35;;;;;;;4.45;1.13;;;;;;;;;;10163203;29;20048;-82
2023/11/15 02:23:43;;;;;;;3.50;1.02;;;;;;;;;;10158455;29;20055;-83
2023/11/15 02:28:47;;;;;;;4.18;1.08;;;;;;;;;;10156893;29;20059;-83
2023/11/15 02:33:50;;;;;;;5.20;1.35;;;;;;;;;;10170591;29;20056;-83
2023/11/15 02:38:55;;;;;;;2.08;0.88;;;;;;;;;;10174206;29;20559;-83
2023/11/15 02:43:59;;;;;;;4.38;1.10;;;;;;;;;;10159925;29;20066;-82
2023/11/15 02:49:02;;;;;;;4.03;1.08;;;;;;;;;;10157526;29;20468;-82
2023/11/15 02:54:07;;;;;;;6.65;1.23;;;;;;;;;;10142528;29;20135;-81
2023/11/15 02:59:10;;;;;;;6.93;1.77;;;;;;;;;;10148950;29;20040;-84
2023/11/15 03:04:14;;;;;;;3.42;1.15;;;;;;;;;;10166596;29;20496;-82
2023/11/15 03:09:19;;;;;;;3.75;1.13;;;;;;;;;;10165567;29;20073;-82
2023/11/15 03:14:22;;;;;;;5.75;1.52;;;;;;;;;;10161898;29;20040;-81
2023/11/15 03:19:26;;;;;;;6.75;1.35;;;;;;;;;;10159365;29;20048;-83
2023/11/15 03:24:30;;;;;;;5.60;1.60;;;;;;;;;;10164280;29;20088;-82
2023/11/15 03:29:34;;;;;;;3.33;0.90;;;;;;;;;;10173778;29;20138;-81
2023/11/15 03:34:41;;;;;;;5.20;1.25;;;;;;;;;;10158558;29;20072;-82
2023/11/15 03:39:45;;;;;;;4.30;1.38;;;;;;;;;;10160622;29;20603;-81
2023/11/15 03:44:49;;;;;;;3.55;1.00;;;;;;;;;;10149675;29;22133;-82
2023/11/15 04:03:39;;;;;;;3.35;0.93;;;;;;;;;;10154071;29;20040;-82
2023/11/15 04:09:33;;;;;;;1.87;0.80;;;;;;;;;;10142612;29;20051;-87
2023/11/15 04:14:37;;;;;;;5.60;1.05;;;;;;;;;;10148461;29;20112;-86
2023/11/15 04:19:41;;;;;;;2.33;0.82;;;;;;;;;;10154663;29;20059;-85
2023/11/15 04:24:46;;;;;;;7.65;1.42;;;;;;;;;;10148751;29;20059;-86
2023/11/15 04:29:50;;;;;;;2.90;1.17;;;;;;;;;;10153977;29;20885;-85
2023/11/15 04:34:55;;;;;;;5.93;1.50;;;;;;;;;;10147225;29;20040;-85
2023/11/15 04:39:58;;;;;;;3.33;0.90;;;;;;;;;;10150503;29;20060;-85
2023/11/15 04:45:02;;;;;;;7.88;1.38;;;;;;;;;;10138102;29;20142;-82
2023/11/15 04:50:08;;;;;;;5.38;1.40;;;;;;;;;;10163748;29;20145;-82
2023/11/15 04:55:11;;;;;;;5.45;1.88;;;;;;;;;;10149481;29;20047;-81
2023/11/15 05:00:15;;;;;;;4.65;1.17;;;;;;;;;;10155560;29;20611;-81
2023/11/15 05:05:20;;;;;;;3.70;1.33;;;;;;;;;;10141954;29;20059;-82
2023/11/15 05:10:24;;;;;;;5.57;1.10;;;;;;;;;;10154758;29;20143;-82
2023/11/15 05:15:28;;;;;;;4.78;1.42;;;;;;;;;;10173797;29;20048;-81
2023/11/15 05:20:33;;;;;;;7.32;1.60;;;;;;;;;;10161117;29;20515;-80
2023/11/15 05:25:36;;;;;;;4.05;1.80;;;;;;;;;;10154160;29;20052;-79
2023/11/15 05:30:40;;;;;;;2.72;1.20;;;;;;;;;;10151179;29;20159;-81
2023/11/15 05:35:44;;;;;;;5.18;1.50;;;;;;;;;;10174897;29;20099;-80
2023/11/15 05:40:49;;;;;;;4.72;1.40;;;;;;;;;;10142432;29;20516;-82
2023/11/15 05:45:53;;;;;;;5.03;1.45;;;;;;;;;;10153419;29;20047;-81
2023/11/15 05:50:57;;;;;;;6.68;1.20;;;;;;;;;;10175549;29;20127;-82
2023/11/15 05:56:01;;;;;;;4.93;1.95;;;;;;;;;;10148211;29;20469;-82
2023/11/15 06:01:04;;;;;;;3.90;0.95;;;;;;;;;;10173560;29;20152;-81
2023/11/15 06:06:09;;;;;;;5.45;1.40;;;;;;;;;;10183104;29;20079;-81
2023/11/15 06:11:13;;;;;;;5.07;1.50;;;;;;;;;;10169682;29;20505;-84
2023/11/15 06:16:16;;;;;;;8.23;1.70;;;;;;;;;;10229152;23;20080;-75
2023/11/15 06:21:21;;;;;;;7.07;1.50;;;;;;;;;;10155885;29;20667;-75
2023/11/15 06:26:24;;;;;;;6.38;1.70;;;;;;;;;;10140525;29;20048;-75
2023/11/15 06:31:29;;;;;;;4.25;1.75;;;;;;;;;;10147032;29;20088;-75
2023/11/15 06:36:36;;;;;;;2.88;1.13;;;;;;;;;;10129053;29;20104;-75
2023/11/15 06:41:40;;;;;;;3.00;1.15;;;;;;;;;;10133142;29;20056;-75
2023/11/15 06:46:43;;;;;;;3.85;1.05;;;;;;;;;;10146642;29;20108;-75
2023/11/15 06:51:56;;;;;;;4.40;1.27;;;;;;;;;;10141894;29;20715;-75
2023/11/15 06:57:00;;;;;;;4.70;1.20;;;;;;;;;;10151697;29;20056;-75
2023/11/15 07:02:11;;;;;;;4.38;1.15;;;;;;;;;;10147025;29;20056;-76
2023/11/15 07:07:16;;;;;;;6.10;2.03;;;;;;;;;;10146171;29;20068;-75
2023/11/15 07:12:25;;;;;;;4.07;0.60;;;;;;;;;;10154609;29;20048;-75
2023/11/15 07:17:28;;;;;;;5.10;1.17;;;;;;;;;;10156263;29;20062;-75
2023/11/15 07:22:36;;;;;;;4.38;1.25;;;;;;;;;;10155768;29;20052;-75
2023/11/15 07:27:55;;;;;;;6.55;1.50;;;;;;;;;;10137269;29;20060;-75
2023/11/15 07:33:00;;;;;;;5.63;1.20;;;;;;;;;;10149754;29;20048;-75
2023/11/15 07:38:08;;;;;;;4.30;1.27;;;;;;;;;;10142411;29;20135;-75
2023/11/15 07:43:14;;;;;;;5.22;1.25;;;;;;;;;;10115568;29;20171;-75
2023/11/15 07:48:19;;;;;;;5.97;1.15;;;;;;;;;;10143157;29;20048;-75
2023/11/15 07:53:24;;;;;;;2.22;1.05;;;;;;;;;;10140782;29;20526;-75
2023/11/15 07:58:28;;;;;;;5.38;1.60;;;;;;;;;;10132605;29;20056;-75
2023/11/15 08:03:31;;;;;;;3.80;1.45;;;;;;;;;;10146859;29;20088;-75
2023/11/15 08:08:36;;;;;;;3.63;1.13;;;;;;;;;;10141310;29;20139;-75
2023/11/15 08:13:46;;;;;;;4.35;1.13;;;;;;;;;;10153887;29;20048;-75
2023/11/15 08:18:49;;;;;;;3.20;0.98;;;;;;;;;;10114232;29;20045;-75
2023/11/15 08:23:54;;;;;;;4.68;1.05;;;;;;;;;;10129101;29;20577;-75
2023/11/15 08:29:03;;;;;;;6.20;1.48;;;;;;;;;;10141063;29;20107;-76
2023/11/15 08:34:11;;;;;;;4.28;1.17;;;;;;;;;;10117420;29;20045;-75
2023/11/15 08:39:16;;;;;;;6.93;1.20;;;;;;;;;;10131429;29;20108;-75
2023/11/15 08:44:23;;;;;;;4.03;1.43;;;;;;;;;;10086514;29;20053;-75
2023/11/15 08:49:50;;;;;;;5.85;1.65;;;;;;;;;;10122806;29;20064;-75
2023/11/15 08:55:01;;;;;;;3.65;1.42;;;;;;;;;;10131021;29;20108;-75
2023/11/15 09:00:12;;;;;;;5.72;2.00;;;;;;;;;;10135560;29;20059;-75
2023/11/15 09:05:22;;;;;;;8.48;1.67;;;;;;;;;;10140281;29;20391;-75
2023/11/15 09:10:31;;;;;;;4.65;1.67;;;;;;;;;;10122697;29;20049;-75
2023/11/15 09:15:37;;;;;;;5.18;1.40;;;;;;;;;;10143881;29;20516;-76
2023/11/15 09:20:41;;;;;;;5.80;1.60;;;;;;;;;;10139449;29;20048;-75
2023/11/15 09:25:49;;;;;;;5.57;1.30;;;;;;;;;;10147787;29;20494;-75
2023/11/15 09:30:53;;;;;;;9.00;2.05;;;;;;;;;;10148908;29;20068;-75
2023/11/15 09:35:56;;;;;;;5.05;1.10;;;;;;;;;;10142527;29;20055;-75
2023/11/15 09:41:04;;;;;;;4.68;1.10;;;;;;;;;;10154370;29;20148;-75
2023/11/15 09:46:12;;;;;;;4.28;1.10;;;;;;;;;;10144663;29;20486;-75
2023/11/15 09:51:20;;;;;;;4.95;1.45;;;;;;;;;;10152570;29;20048;-75
2023/11/15 09:56:25;;;;;;;1.45;0.80;;;;;;;;;;10155696;29;20136;-75
2023/11/15 10:01:28;;;;;;;3.55;0.82;;;;;;;;;;10150205;29;20060;-76
2023/11/15 10:06:42;;;;;;;2.95;1.10;;;;;;;;;;10131453;29;20060;-75
2023/11/15 10:11:50;;;;;;;2.47;1.15;;;;;;;;;;10140857;29;20048;-75
2023/11/15 10:16:54;;;;;;;4.10;1.20;;;;;;;;;;10155044;29;20120;-75
2023/11/15 10:22:02;;;;;;;3.38;1.27;;;;;;;;;;10149432;29;20059;-75
2023/11/15 10:27:14;;;;;;;4.07;1.77;;;;;;;;;;10132772;29;20051;-75
2023/11/15 10:32:23;;;;;;;4.82;1.05;;;;;;;;;;10134421;29;20080;-75
2023/11/15 10:37:26;;;;;;;2.30;0.75;;;;;;;;;;10143639;29;20045;-75
2023/11/15 10:42:48;;;;;;;1.95;0.73;;;;;;;;;;10125089;29;20412;-75
2023/11/15 10:47:58;;;;;;;4.38;0.80;;;;;;;;;;10146522;29;20052;-76
2023/11/15 10:53:04;;;;;;;2.28;0.90;;;;;;;;;;10155186;29;20119;-76
2023/11/15 10:58:11;;;;;;;4.53;1.10;;;;;;;;;;10141244;29;20117;-75
2023/11/15 11:03:40;;;;;;;2.75;0.77;;;;;;;;;;10130742;29;20491;-75
2023/11/15 11:08:59;;;;;;;3.13;0.75;;;;;;;;;;10136126;29;20542;-76
2023/11/15 11:14:25;;;;;;;3.33;1.23;;;;;;;;;;10142831;29;20048;-75
2023/11/15 11:19:29;;;;;;;2.55;0.93;;;;;;;;;;10147880;29;20100;-75
2023/11/15 11:24:34;;;;;;;3.15;1.10;;;;;;;;;;10149621;29;20052;-75
2023/11/15 11:30:13;;;;;;;2.67;1.02;;;;;;;;;;10131097;29;20418;-75
2023/11/15 11:35:34;;;;;;;3.75;1.27;;;;;;;;;;10128276;29;20060;-75
2023/11/15 11:40:40;;;;;;;3.30;1.13;;;;;;;;;;10131394;29;20100;-75
2023/11/15 11:45:48;;;;;;;3.78;1.15;;;;;;;;;;10141628;29;20060;-75
2023/11/15 11:51:16;;;;;;;6.28;1.38;;;;;;;;;;10115669;29;20183;-75
2023/11/15 11:56:23;;;;;;;3.20;1.30;;;;;;;;;;10131272;29;20040;-75
2023/11/15 12:01:51;;;;;;;2.60;0.93;;;;;;;;;;10139125;29;20053;-75
2023/11/15 12:06:55;;;;;;;5.40;1.13;;;;;;;;;;10144186;29;20066;-76
2023/11/15 12:12:02;;;;;;;2.55;0.75;;;;;;;;;;10142000;29;20040;-74
2023/11/15 12:17:08;;;;;;;4.93;1.20;;;;;;;;;;10120938;29;20052;-75
2023/11/15 12:22:22;;;;;;;2.88;1.05;;;;;;;;;;10137658;29;20056;-76
2023/11/15 12:43:07;;;;;;;;;;;;;;;;;;;;;
2023/11/15 12:49:44;;;;;;;3.83;0.43;;;;;;;;;;9808079;30;20802;-76
2023/11/15 13:27:05;;;;;;;;;;;;;;;;;;;;;
2023/11/15 13:32:16;;;;;;;1.08;0.50;;;;;;;;;;10167832;29;20099;-76
2023/11/15 13:45:10;;;;;;;1.58;0.57;;;;;;;;;;9954593;29;20186;-76
2023/11/15 13:51:09;;;;;;;1.15;0.40;;;;;;;;;;10052198;29;20483;-75
2023/11/15 13:56:52;;;;;;;;;;;;;;;;;;;;;
2023/11/15 14:08:11;;;;;;;1.02;0.52;;;;;;;;;;9921427;29;20551;-76
2023/11/15 14:14:15;;;;;;;;;;;;;;;;;;;;;
2023/11/15 14:19:44;;;;;;;5.13;1.30;;;;;;;;;;10083506;29;20051;-75
2023/11/15 14:26:04;;;;;;;0.80;0.50;;;;;;;;;;10184883;29;20045;-76
2023/11/15 14:32:07;;;;;;;3.42;1.15;;;;;;;;;;10163931;23;20044;-75
2023/11/15 14:37:27;;;;;;;3.10;1.13;;;;;;;;;;10162072;29;20131;-76
2023/11/15 14:42:31;;;;;;;2.83;0.80;;;;;;;;;;10177924;29;20047;-76
2023/11/15 14:48:15;;;;;;;;;;;;;;;;;;;;;
2023/11/15 14:54:09;;;;;;;1.95;0.82;;;;;;;;;;10010664;29;20137;-75
2023/11/15 14:59:42;;;;;;;;;;;;;;;;;;;;;
2023/11/15 15:11:07;;;;;;;3.30;1.43;;;;;;;;;;10171321;29;20484;-76
2023/11/15 15:22:10;;;;;;;2.60;1.17;;;;;;;;;;10159658;29;20091;-75
2023/11/15 15:28:14;;;;;;;;;;;;;;;;;;;;;
2023/11/15 15:33:43;;;;;;;2.83;0.80;;;;;;;;;;10170072;29;20420;-76
2023/11/15 15:39:03;;;;;;;3.30;0.85;;;;;;;;;;10168751;29;20071;-76
2023/11/15 15:44:42;;;;;;;;;;;;;;;;;;;;;
2023/11/15 15:49:53;;;;;;;2.35;0.80;;;;;;;;;;10183943;29;20040;-76
2023/11/15 15:55:01;;;;;;;2.08;0.60;;;;;;;;;;10183311;29;20052;-75
2023/11/15 16:00:09;;;;;;;3.33;0.82;;;;;;;;;;10179408;29;20044;-75
2023/11/15 16:17:20;;;;;;;;;;;;;;;;;;;;;
2023/11/15 16:22:27;;;;;;;1.25;0.50;;;;;;;;;;10138054;29;20130;-75
2023/11/15 16:27:33;;;;;;;2.75;0.80;;;;;;;;;;10175413;29;20087;-75
2023/11/15 16:32:40;;;;;;;2.67;0.68;;;;;;;;;;10163606;29;20521;-75
2023/11/15 16:37:47;;;;;;;1.63;0.65;;;;;;;;;;10167894;29;20044;-76
2023/11/15 16:43:14;;;;;;;3.60;0.75;;;;;;;;;;10180729;29;20406;-75
2023/11/15 16:48:23;;;;;;;2.63;0.50;;;;;;;;;;10179733;29;20528;-75
2023/11/15 16:53:29;;;;;;;1.85;0.85;;;;;;;;;;10169305;29;20052;-76
2023/11/15 16:58:32;;;;;;;3.00;1.10;;;;;;;;;;10160028;29;20429;-75
2023/11/15 17:03:49;;;;;;;2.00;0.80;;;;;;;;;;10191906;29;20059;-75
2023/11/15 17:09:00;;;;;;;3.22;0.80;;;;;;;;;;10185547;29;20118;-75
2023/11/15 17:14:05;;;;;;;2.92;0.60;;;;;;;;;;10165179;29;20739;-75
2023/11/15 17:19:11;;;;;;;4.15;1.05;;;;;;;;;;10167099;29;20103;-75
2023/11/15 17:24:16;;;;;;;2.00;0.75;;;;;;;;;;10173548;29;20051;-75
2023/11/15 17:29:21;;;;;;;4.38;1.52;;;;;;;;;;10181071;29;20054;-75
2023/11/15 17:34:30;;;;;;;3.63;1.20;;;;;;;;;;10184990;29;20051;-76
2023/11/15 17:39:36;;;;;;;3.25;1.00;;;;;;;;;;10197591;29;20043;-75
2023/11/15 17:44:52;;;;;;;4.40;1.30;;;;;;;;;;10179176;29;20044;-75
2023/11/15 17:49:57;;;;;;;5.60;1.42;;;;;;;;;;10167770;29;20299;-75
2023/11/15 17:55:03;;;;;;;3.83;1.23;;;;;;;;;;10180902;29;20056;-75
2023/11/15 18:00:14;;;;;;;3.38;1.20;;;;;;;;;;10170147;29;20074;-75
2023/11/15 18:05:22;;;;;;;3.13;1.05;;;;;;;;;;10170357;29;20119;-75
2023/11/15 18:10:28;;;;;;;5.55;1.15;;;;;;;;;;10184104;29;20434;-75
2023/11/15 18:15:32;;;;;;;3.58;1.33;;;;;;;;;;10300613;23;20078;-80
2023/11/15 18:20:38;;;;;;;2.47;0.90;;;;;;;;;;10173828;29;20051;-80
2023/11/15 18:25:45;;;;;;;2.95;1.27;;;;;;;;;;10173701;29;20063;-80
2023/11/15 18:30:51;;;;;;;1.90;0.90;;;;;;;;;;10170548;29;20076;-81
2023/11/15 18:35:56;;;;;;;3.92;1.38;;;;;;;;;;10160804;29;20135;-81
2023/11/15 18:40:59;;;;;;;2.53;1.30;;;;;;;;;;10143466;29;20380;-80
2023/11/15 18:46:02;;;;;;;1.95;0.82;;;;;;;;;;10136460;29;20479;-81
2023/11/15 18:51:11;;;;;;;4.35;1.05;;;;;;;;;;10144118;29;20051;-81
2023/11/15 18:56:16;;;;;;;4.05;1.27;;;;;;;;;;10158034;29;20482;-80
2023/11/15 19:01:20;;;;;;;3.42;0.80;;;;;;;;;;10169278;29;20052;-81
2023/11/15 19:06:29;;;;;;;3.58;1.10;;;;;;;;;;10138111;29;20048;-81
2023/11/15 19:11:32;;;;;;;1.98;0.73;;;;;;;;;;10165339;29;20086;-81
2023/11/15 19:16:36;;;;;;;3.33;0.93;;;;;;;;;;10174652;29;20228;-81
2023/11/15 19:21:40;;;;;;;2.65;0.93;;;;;;;;;;10150339;29;20082;-81
2023/11/15 19:26:44;;;;;;;3.20;0.90;;;;;;;;;;10159250;29;20156;-81
2023/11/15 19:31:48;;;;;;;2.42;0.93;;;;;;;;;;10147967;29;20143;-80
2023/11/15 19:36:52;;;;;;;1.48;0.80;;;;;;;;;;10160414;29;20056;-81
2023/11/15 19:41:56;;;;;;;4.28;1.08;;;;;;;;;;10159135;29;20419;-81
2023/11/15 19:47:03;;;;;;;3.00;1.13;;;;;;;;;;10172715;29;20052;-80
2023/11/15 19:52:11;;;;;;;3.45;1.10;;;;;;;;;;10181934;29;20054;-81
2023/11/15 19:57:15;;;;;;;4.22;0.82;;;;;;;;;;10156025;29;20077;-81
2023/11/15 20:02:18;;;;;;;2.90;1.00;;;;;;;;;;10146762;29;20044;-81
2023/11/15 20:07:25;;;;;;;2.42;1.17;;;;;;;;;;10151749;29;20110;-81
2023/11/15 20:12:29;;;;;;;2.33;1.02;;;;;;;;;;10174197;29;20442;-81
2023/11/15 20:17:32;;;;;;;2.00;1.13;;;;;;;;;;10172860;29;20077;-81
2023/11/15 20:22:37;;;;;;;3.45;0.80;;;;;;;;;;10147892;29;20048;-81
2023/11/15 20:27:43;;;;;;;3.03;1.05;;;;;;;;;;10127320;29;20534;-81
2023/11/15 20:32:47;;;;;;;4.75;1.20;;;;;;;;;;10149064;29;20054;-80
2023/11/15 20:37:52;;;;;;;2.00;0.70;;;;;;;;;;10143636;29;20136;-80
2023/11/15 20:42:56;;;;;;;2.95;1.15;;;;;;;;;;10193762;29;20048;-81
2023/11/15 20:48:01;;;;;;;1.88;1.13;;;;;;;;;;10152811;29;20123;-81
2023/11/15 20:53:07;;;;;;;3.17;1.08;;;;;;;;;;10168967;29;20063;-80
2023/11/15 20:58:10;;;;;;;1.23;0.68;;;;;;;;;;10166938;29;20055;-81
2023/11/15 21:03:14;;;;;;;2.67;0.75;;;;;;;;;;10154631;29;20074;-80
2023/11/15 21:08:18;;;;;;;3.65;1.02;;;;;;;;;;10154861;29;20123;-80
2023/11/15 21:13:22;;;;;;;2.95;0.70;;;;;;;;;;10152749;29;20048;-80
2023/11/15 21:18:26;;;;;;;4.68;0.80;;;;;;;;;;10150703;29;20062;-81
2023/11/15 21:23:32;;;;;;;4.00;1.08;;;;;;;;;;10155195;29;20060;-81
2023/11/15 21:28:36;;;;;;;1.90;1.25;;;;;;;;;;10145542;29;20090;-81
2023/11/15 21:33:40;;;;;;;4.80;1.00;;;;;;;;;;10143081;29;20062;-82
2023/11/15 21:38:45;;;;;;;2.42;1.27;;;;;;;;;;10161306;29;20056;-80
2023/11/15 21:43:48;;;;;;;5.18;1.00;;;;;;;;;;10166807;29;20092;-81
2023/11/15 21:48:52;;;;;;;2.88;1.10;;;;;;;;;;10148049;29;20078;-80
2023/11/15 21:53:59;;;;;;;5.88;1.60;;;;;;;;;;10159846;29;20075;-81
2023/11/15 21:59:03;;;;;;;3.10;1.23;;;;;;;;;;10173042;29;20769;-81
2023/11/15 22:04:06;;;;;;;3.45;1.00;;;;;;;;;;10167826;29;20147;-81
2023/11/15 22:09:12;;;;;;;3.60;0.82;;;;;;;;;;10142287;29;20147;-81
2023/11/15 22:14:18;;;;;;;1.15;0.60;;;;;;;;;;10142681;29;20107;-81
2023/11/15 22:19:21;;;;;;;2.33;0.98;;;;;;;;;;10159532;29;20076;-81
2023/11/15 22:24:26;;;;;;;3.78;0.80;;;;;;;;;;10173253;29;20709;-81
2023/11/15 22:29:30;;;;;;;0.52;0.50;;;;;;;;;;10183336;29;20107;-81
2023/11/15 22:34:33;;;;;;;2.53;1.02;;;;;;;;;;10164888;29;20512;-81
2023/11/15 22:39:37;;;;;;;2.15;0.80;;;;;;;;;;10187809;29;20108;-81
2023/11/15 22:44:41;;;;;;;2.80;0.80;;;;;;;;;;10184422;29;20043;-81
2023/11/15 22:49:45;;;;;;;1.15;0.75;;;;;;;;;;10182039;29;20071;-81
2023/11/15 22:54:50;;;;;;;2.42;0.70;;;;;;;;;;10179426;29;20086;-80
2023/11/15 22:59:54;;;;;;;2.83;1.10;;;;;;;;;;10170674;29;20056;-80
2023/11/15 23:04:57;;;;;;;4.00;1.67;;;;;;;;;;10170966;29;20037;-81
2023/11/15 23:10:02;;;;;;;4.03;1.45;;;;;;;;;;10163199;29;20052;-80
2023/11/15 23:15:06;;;;;;;4.80;1.40;;;;;;;;;;10163639;29;20144;-81
2023/11/15 23:20:11;;;;;;;2.83;1.10;;;;;;;;;;10165343;29;20060;-81
2023/11/15 23:25:16;;;;;;;3.97;1.02;;;;;;;;;;10188469;29;20134;-81
2023/11/15 23:30:19;;;;;;;1.42;0.70;;;;;;;;;;10172492;29;20623;-81
2023/11/15 23:35:24;;;;;;;2.22;0.60;;;;;;;;;;10185119;29;20143;-81
2023/11/15 23:40:29;;;;;;;2.08;1.00;;;;;;;;;;10152552;29;20086;-80
2023/11/15 23:45:32;;;;;;;1.92;0.77;;;;;;;;;;10164141;29;20136;-81
2023/11/15 23:50:36;;;;;;;2.83;0.73;;;;;;;;;;10186869;29;20052;-81
2023/11/15 23:55:40;;;;;;;3.53;1.00;;;;;;;;;;10159883;29;20135;-80
